createdAt,value
2018-05-23T00:00:47.871Z,16.52
2018-05-23T00:01:47.938Z,16.64
2018-05-23T00:02:47.906Z,16.64
2018-05-23T00:03:47.923Z,16.61
2018-05-23T00:04:47.942Z,16.68
2018-05-23T00:05:47.958Z,16.68
2018-05-23T00:06:47.976Z,16.63
2018-05-23T00:07:48.079Z,16.73
2018-05-23T00:08:48.011Z,16.73
2018-05-23T00:09:48.029Z,16.81
2018-05-23T00:10:48.048Z,16.82
2018-05-23T00:11:48.068Z,16.81
2018-05-23T00:12:48.083Z,16.78
2018-05-23T00:13:48.245Z,16.78
2018-05-23T00:14:48.118Z,16.88
2018-05-23T00:15:48.136Z,16.81
2018-05-23T00:16:48.154Z,16.68
2018-05-23T00:17:48.171Z,16.76
2018-05-23T00:18:48.194Z,16.76
2018-05-23T00:19:48.296Z,16.73
2018-05-23T00:20:48.236Z,16.81
2018-05-23T00:21:48.242Z,16.85
2018-05-23T00:22:48.262Z,16.88
2018-05-23T00:23:48.278Z,16.88
2018-05-23T00:24:48.310Z,16.89
2018-05-23T00:25:48.315Z,16.91
2018-05-23T00:26:48.333Z,16.88
2018-05-23T00:27:48.349Z,16.83
2018-05-23T00:28:48.367Z,16.75
2018-05-23T00:29:48.386Z,16.71
2018-05-23T00:30:48.404Z,16.82
2018-05-23T00:31:48.421Z,16.86
2018-05-23T00:32:48.438Z,16.81
2018-05-23T00:33:48.456Z,16.71
2018-05-23T00:34:48.474Z,16.64
2018-05-23T00:35:48.493Z,16.66
2018-05-23T00:36:48.515Z,16.70
2018-05-23T00:37:48.578Z,16.57
2018-05-23T00:38:48.546Z,16.56
2018-05-23T00:39:48.566Z,16.56
2018-05-23T00:40:48.581Z,16.58
2018-05-23T00:41:48.603Z,16.52
2018-05-23T00:42:48.620Z,16.50
2018-05-23T00:43:48.636Z,16.52
2018-05-23T00:44:48.653Z,16.50
2018-05-23T00:45:48.671Z,16.42
2018-05-23T00:46:48.688Z,16.48
2018-05-23T00:47:48.709Z,16.48
2018-05-23T00:48:48.724Z,16.52
2018-05-23T00:49:48.746Z,16.48
2018-05-23T00:50:48.761Z,16.46
2018-05-23T00:51:48.777Z,16.33
2018-05-23T00:52:48.796Z,16.38
2018-05-23T00:53:48.814Z,16.34
2018-05-23T00:54:48.835Z,16.41
2018-05-23T00:55:48.899Z,16.41
2018-05-23T00:56:48.870Z,16.35
2018-05-23T00:57:48.884Z,16.42
2018-05-23T00:58:48.906Z,16.43
2018-05-23T00:59:48.918Z,16.43
2018-05-23T01:00:48.938Z,16.48
2018-05-23T01:01:48.959Z,16.45
2018-05-23T01:02:48.973Z,16.39
2018-05-23T01:03:48.990Z,16.48
2018-05-23T01:04:49.011Z,16.43
2018-05-23T01:05:49.027Z,16.41
2018-05-23T01:06:49.046Z,16.42
2018-05-23T01:07:49.062Z,16.34
2018-05-23T01:08:49.097Z,16.31
2018-05-23T01:09:49.099Z,16.35
2018-05-23T01:10:49.116Z,16.38
2018-05-23T01:11:49.133Z,16.39
2018-05-23T01:12:49.163Z,16.31
2018-05-23T01:13:49.171Z,16.45
2018-05-23T01:14:49.269Z,16.48
2018-05-23T01:15:49.205Z,16.43
2018-05-23T01:16:49.222Z,16.42
2018-05-23T01:17:49.240Z,16.46
2018-05-23T01:18:49.259Z,16.53
2018-05-23T01:19:49.326Z,16.41
2018-05-23T01:20:49.373Z,16.45
2018-05-23T01:21:49.313Z,16.48
2018-05-23T01:22:49.328Z,16.35
2018-05-23T01:23:49.348Z,16.39
2018-05-23T01:24:49.370Z,16.42
2018-05-23T01:25:49.441Z,16.50
2018-05-23T01:26:49.406Z,16.50
2018-05-23T01:27:49.419Z,16.50
2018-05-23T01:28:49.438Z,16.43
2018-05-23T01:29:49.454Z,16.41
2018-05-23T01:30:49.473Z,16.46
2018-05-23T01:31:49.491Z,16.45
2018-05-23T01:32:49.507Z,16.43
2018-05-23T01:33:49.524Z,16.42
2018-05-23T01:34:49.544Z,16.38
2018-05-23T01:35:49.560Z,16.30
2018-05-23T01:36:49.578Z,16.35
2018-05-23T01:37:49.647Z,16.41
2018-05-23T01:38:49.621Z,16.35
2018-05-23T01:39:49.631Z,16.45
2018-05-23T01:40:49.652Z,16.45
2018-05-23T01:41:49.668Z,16.38
2018-05-23T01:42:49.686Z,16.38
2018-05-23T01:43:49.753Z,16.35
2018-05-23T01:44:49.723Z,16.43
2018-05-23T01:45:49.738Z,16.35
2018-05-23T01:46:49.756Z,16.34
2018-05-23T01:47:49.774Z,16.33
2018-05-23T01:48:49.790Z,16.42
2018-05-23T01:49:49.816Z,16.45
2018-05-23T01:50:49.844Z,16.48
2018-05-23T01:51:49.845Z,16.53
2018-05-23T01:52:49.863Z,16.49
2018-05-23T01:53:49.881Z,16.50
2018-05-23T01:54:49.906Z,16.52
2018-05-23T01:55:49.915Z,16.58
2018-05-23T01:56:49.934Z,16.52
2018-05-23T01:57:50.041Z,16.52
2018-05-23T01:58:49.970Z,16.45
2018-05-23T01:59:49.987Z,16.39
2018-05-23T02:00:50.019Z,16.46
2018-05-23T02:01:50.024Z,16.57
2018-05-23T02:02:50.043Z,16.49
2018-05-23T02:03:50.136Z,16.53
2018-05-23T02:04:50.076Z,16.60
2018-05-23T02:05:50.095Z,16.68
2018-05-23T02:06:50.114Z,16.75
2018-05-23T02:07:50.187Z,16.73
2018-05-23T02:08:50.149Z,16.52
2018-05-23T02:09:50.220Z,16.63
2018-05-23T02:10:50.191Z,16.60
2018-05-23T02:11:50.201Z,16.58
2018-05-23T02:12:50.220Z,16.68
2018-05-23T02:13:50.288Z,16.61
2018-05-23T02:14:50.256Z,16.70
2018-05-23T02:15:50.274Z,16.66
2018-05-23T02:16:50.291Z,16.70
2018-05-23T02:17:50.310Z,16.66
2018-05-23T02:18:50.327Z,16.70
2018-05-23T02:19:50.347Z,16.83
2018-05-23T02:20:50.362Z,16.79
2018-05-23T02:21:50.382Z,16.83
2018-05-23T02:22:50.399Z,16.82
2018-05-23T02:23:50.416Z,16.91
2018-05-23T02:24:50.436Z,16.93
2018-05-23T02:25:50.452Z,16.86
2018-05-23T02:26:50.473Z,16.88
2018-05-23T02:27:50.492Z,16.86
2018-05-23T02:28:50.505Z,16.88
2018-05-23T02:29:50.524Z,17.01
2018-05-23T02:30:50.543Z,17.06
2018-05-23T02:31:50.609Z,17.03
2018-05-23T02:32:50.581Z,17.08
2018-05-23T02:33:50.595Z,17.12
2018-05-23T02:34:50.617Z,17.21
2018-05-23T02:35:50.629Z,17.19
2018-05-23T02:36:50.719Z,17.16
2018-05-23T02:37:50.719Z,17.19
2018-05-23T02:38:50.685Z,17.16
2018-05-23T02:39:50.700Z,17.08
2018-05-23T02:40:50.719Z,17.14
2018-05-23T02:41:50.738Z,17.18
2018-05-23T02:42:50.756Z,17.16
2018-05-23T02:43:50.779Z,17.26
2018-05-23T02:44:50.795Z,17.30
2018-05-23T02:45:50.809Z,17.38
2018-05-23T02:46:50.830Z,17.28
2018-05-23T02:47:50.846Z,17.18
2018-05-23T02:48:50.865Z,17.07
2018-05-23T02:49:50.937Z,17.03
2018-05-23T02:50:50.899Z,17.03
2018-05-23T02:51:50.918Z,17.04
2018-05-23T02:52:50.935Z,17.03
2018-05-23T02:53:50.962Z,17.01
2018-05-23T02:54:50.975Z,17.03
2018-05-23T02:55:51.041Z,16.93
2018-05-23T02:56:51.008Z,17.01
2018-05-23T02:57:51.026Z,17.03
2018-05-23T02:58:51.047Z,16.96
2018-05-23T02:59:51.063Z,16.98
2018-05-23T03:00:51.083Z,16.89
2018-05-23T03:01:54.905Z,16.94
2018-05-23T03:02:51.159Z,16.86
2018-05-23T03:03:51.133Z,16.83
2018-05-23T03:04:51.153Z,16.88
2018-05-23T03:05:51.172Z,16.97
2018-05-23T03:06:51.287Z,16.98
2018-05-23T03:07:51.206Z,17.03
2018-05-23T03:08:51.222Z,16.96
2018-05-23T03:09:51.242Z,16.86
2018-05-23T03:10:51.278Z,16.79
2018-05-23T03:11:51.279Z,16.70
2018-05-23T03:12:51.296Z,16.82
2018-05-23T03:13:51.314Z,16.73
2018-05-23T03:14:51.333Z,16.68
2018-05-23T03:15:51.356Z,16.68
2018-05-23T03:16:51.369Z,16.73
2018-05-23T03:17:51.385Z,16.71
2018-05-23T03:18:51.403Z,16.86
2018-05-23T03:19:51.419Z,16.88
2018-05-23T03:20:51.437Z,16.82
2018-05-23T03:21:51.459Z,16.85
2018-05-23T03:22:51.475Z,16.81
2018-05-23T03:23:51.492Z,16.88
2018-05-23T03:24:51.512Z,16.91
2018-05-23T03:25:51.528Z,16.86
2018-05-23T03:26:51.547Z,16.93
2018-05-23T03:27:51.564Z,16.96
2018-05-23T03:28:51.582Z,16.98
2018-05-23T03:29:51.651Z,17.01
2018-05-23T03:30:51.623Z,17.06
2018-05-23T03:31:51.637Z,17.12
2018-05-23T03:32:51.654Z,17.16
2018-05-23T03:33:51.676Z,17.16
2018-05-23T03:34:51.691Z,17.04
2018-05-23T03:35:51.767Z,17.00
2018-05-23T03:36:51.738Z,17.01
2018-05-23T03:37:51.744Z,16.91
2018-05-23T03:38:51.795Z,16.91
2018-05-23T03:39:51.779Z,17.00
2018-05-23T03:40:51.797Z,17.03
2018-05-23T03:41:51.815Z,17.03
2018-05-23T03:42:51.834Z,17.07
2018-05-23T03:43:51.852Z,17.22
2018-05-23T03:44:51.870Z,17.22
2018-05-23T03:45:51.887Z,17.16
2018-05-23T03:46:51.905Z,17.08
2018-05-23T03:47:51.923Z,17.07
2018-05-23T03:48:51.945Z,17.08
2018-05-23T03:49:51.960Z,17.19
2018-05-23T03:50:51.979Z,17.18
2018-05-23T03:51:51.994Z,17.11
2018-05-23T03:52:52.013Z,17.08
2018-05-23T03:53:52.032Z,16.96
2018-05-23T03:54:52.083Z,17.00
2018-05-23T03:55:52.067Z,16.82
2018-05-23T03:56:52.085Z,16.91
2018-05-23T03:57:52.103Z,16.91
2018-05-23T03:58:52.121Z,16.89
2018-05-23T03:59:52.139Z,16.81
2018-05-23T04:00:52.167Z,16.88
2018-05-23T04:01:52.174Z,16.86
2018-05-23T04:02:52.193Z,16.91
2018-05-23T04:03:52.210Z,16.86
2018-05-23T04:04:52.232Z,16.97
2018-05-23T04:05:52.248Z,17.03
2018-05-23T04:06:52.265Z,16.96
2018-05-23T04:07:52.281Z,16.88
2018-05-23T04:08:52.301Z,16.89
2018-05-23T04:09:52.324Z,16.89
2018-05-23T04:10:52.337Z,16.89
2018-05-23T04:11:52.360Z,16.88
2018-05-23T04:12:52.373Z,16.97
2018-05-23T04:13:52.472Z,16.89
2018-05-23T04:14:52.407Z,17.00
2018-05-23T04:15:52.427Z,16.88
2018-05-23T04:16:52.443Z,16.91
2018-05-23T04:17:52.461Z,16.86
2018-05-23T04:18:52.481Z,16.96
2018-05-23T04:19:52.572Z,16.93
2018-05-23T04:20:52.515Z,16.94
2018-05-23T04:21:52.534Z,16.88
2018-05-23T04:22:52.552Z,17.03
2018-05-23T04:23:52.569Z,16.96
2018-05-23T04:24:52.654Z,16.94
2018-05-23T04:25:52.623Z,16.91
2018-05-23T04:26:52.623Z,16.97
2018-05-23T04:27:52.641Z,16.86
2018-05-23T04:28:52.658Z,16.73
2018-05-23T04:29:52.674Z,16.73
2018-05-23T04:30:52.697Z,16.78
2018-05-23T04:31:52.712Z,16.85
2018-05-23T04:32:52.728Z,16.86
2018-05-23T04:33:52.748Z,16.86
2018-05-23T04:34:52.764Z,16.94
2018-05-23T04:35:52.782Z,17.00
2018-05-23T04:36:52.799Z,16.94
2018-05-23T04:37:52.816Z,16.86
2018-05-23T04:38:52.840Z,16.88
2018-05-23T04:39:52.851Z,16.86
2018-05-23T04:40:52.870Z,16.88
2018-05-23T04:41:52.889Z,16.76
2018-05-23T04:42:52.907Z,16.73
2018-05-23T04:43:52.923Z,16.75
2018-05-23T04:44:52.943Z,16.70
2018-05-23T04:45:52.962Z,16.73
2018-05-23T04:46:52.977Z,16.76
2018-05-23T04:47:53.022Z,16.71
2018-05-23T04:48:53.108Z,16.53
2018-05-23T04:49:53.027Z,16.61
2018-05-23T04:50:53.099Z,16.60
2018-05-23T04:51:53.061Z,16.73
2018-05-23T04:52:53.083Z,16.68
2018-05-23T04:53:53.100Z,16.82
2018-05-23T04:54:53.118Z,16.83
2018-05-23T04:55:53.134Z,16.86
2018-05-23T04:56:53.151Z,16.78
2018-05-23T04:57:53.172Z,16.82
2018-05-23T04:58:53.186Z,16.82
2018-05-23T04:59:53.202Z,16.81
2018-05-23T05:00:53.222Z,16.82
2018-05-23T05:01:53.237Z,16.83
2018-05-23T05:02:53.255Z,16.91
2018-05-23T05:03:53.272Z,16.89
2018-05-23T05:04:53.292Z,16.89
2018-05-23T05:05:53.311Z,16.94
2018-05-23T05:06:53.328Z,16.96
2018-05-23T05:07:53.347Z,16.89
2018-05-23T05:08:53.361Z,16.91
2018-05-23T05:09:53.434Z,16.93
2018-05-23T05:10:53.403Z,16.91
2018-05-23T05:11:53.417Z,16.85
2018-05-23T05:12:53.433Z,17.03
2018-05-23T05:13:53.546Z,16.93
2018-05-23T05:14:53.467Z,16.86
2018-05-23T05:15:53.544Z,16.86
2018-05-23T05:16:53.501Z,16.88
2018-05-23T05:17:53.519Z,16.78
2018-05-23T05:18:53.540Z,16.85
2018-05-23T05:19:53.555Z,16.70
2018-05-23T05:20:53.573Z,16.66
2018-05-23T05:21:53.591Z,16.57
2018-05-23T05:22:53.608Z,16.67
2018-05-23T05:23:53.624Z,16.56
2018-05-23T05:24:53.683Z,16.75
2018-05-23T05:25:53.661Z,16.67
2018-05-23T05:26:53.678Z,16.70
2018-05-23T05:27:53.708Z,16.71
2018-05-23T05:28:53.714Z,16.67
2018-05-23T05:29:53.735Z,16.63
2018-05-23T05:30:53.749Z,16.71
2018-05-23T05:31:53.858Z,16.73
2018-05-23T05:32:53.784Z,16.71
2018-05-23T05:33:53.844Z,16.66
2018-05-23T05:34:53.820Z,16.58
2018-05-23T05:35:53.835Z,16.58
2018-05-23T05:36:53.859Z,16.61
2018-05-23T05:37:53.872Z,16.64
2018-05-23T05:38:53.955Z,16.71
2018-05-23T05:39:53.905Z,16.71
2018-05-23T05:40:53.922Z,16.75
2018-05-23T05:41:53.942Z,16.67
2018-05-23T05:42:53.959Z,16.78
2018-05-23T05:43:53.975Z,16.78
2018-05-23T05:44:53.995Z,16.71
2018-05-23T05:45:54.013Z,16.70
2018-05-23T05:46:54.060Z,16.81
2018-05-23T05:47:54.048Z,16.76
2018-05-23T05:48:54.068Z,16.76
2018-05-23T05:49:54.081Z,16.71
2018-05-23T05:50:54.105Z,16.75
2018-05-23T05:51:54.117Z,16.68
2018-05-23T05:52:54.202Z,16.67
2018-05-23T05:53:54.157Z,16.70
2018-05-23T05:54:54.178Z,16.75
2018-05-23T05:55:54.191Z,16.73
2018-05-23T05:56:54.205Z,16.61
2018-05-23T05:57:54.223Z,16.64
2018-05-23T05:58:54.299Z,16.66
2018-05-23T05:59:54.260Z,16.64
2018-05-23T06:00:54.276Z,16.68
2018-05-23T06:01:54.345Z,16.75
2018-05-23T06:02:54.312Z,16.73
2018-05-23T06:03:54.326Z,16.79
2018-05-23T06:04:54.371Z,16.81
2018-05-23T06:05:54.362Z,16.82
2018-05-23T06:06:54.382Z,16.78
2018-05-23T06:07:54.397Z,16.86
2018-05-23T06:08:54.415Z,16.93
2018-05-23T06:09:54.516Z,16.88
2018-05-23T06:10:54.488Z,16.88
2018-05-23T06:11:54.467Z,16.88
2018-05-23T06:12:54.484Z,16.96
2018-05-23T06:13:54.504Z,17.03
2018-05-23T06:14:54.521Z,16.88
2018-05-23T06:15:54.537Z,16.86
2018-05-23T06:16:54.556Z,16.79
2018-05-23T06:17:54.572Z,16.93
2018-05-23T06:18:54.593Z,16.91
2018-05-23T06:19:54.606Z,16.94
2018-05-23T06:20:54.625Z,16.96
2018-05-23T06:21:54.648Z,16.93
2018-05-23T06:22:54.662Z,16.94
2018-05-23T06:23:54.732Z,16.94
2018-05-23T06:24:54.700Z,17.00
2018-05-23T06:25:54.716Z,16.86
2018-05-23T06:26:54.730Z,17.03
2018-05-23T06:27:54.749Z,16.97
2018-05-23T06:28:54.766Z,17.01
2018-05-23T06:29:54.785Z,17.01
2018-05-23T06:30:54.826Z,17.08
2018-05-23T06:31:54.818Z,17.03
2018-05-23T06:32:54.839Z,17.04
2018-05-23T06:33:54.854Z,16.94
2018-05-23T06:34:54.870Z,16.93
2018-05-23T06:35:54.917Z,16.91
2018-05-23T06:36:54.907Z,16.96
2018-05-23T06:37:54.947Z,16.98
2018-05-23T06:38:54.942Z,16.96
2018-05-23T06:39:54.960Z,16.98
2018-05-23T06:40:54.978Z,16.93
2018-05-23T06:41:55.042Z,16.96
2018-05-23T06:42:55.013Z,16.85
2018-05-23T06:43:55.027Z,16.89
2018-05-23T06:44:55.046Z,16.93
2018-05-23T06:45:55.064Z,16.86
2018-05-23T06:46:55.081Z,16.88
2018-05-23T06:47:55.099Z,16.86
2018-05-23T06:48:55.117Z,16.98
2018-05-23T06:49:55.152Z,17.11
2018-05-23T06:50:55.153Z,17.19
2018-05-23T06:51:55.169Z,17.21
2018-05-23T06:52:55.187Z,17.28
2018-05-23T06:53:55.225Z,17.43
2018-05-23T06:54:55.223Z,17.48
2018-05-23T06:55:55.239Z,17.58
2018-05-23T06:56:55.257Z,17.51
2018-05-23T06:57:55.277Z,17.41
2018-05-23T06:58:55.295Z,17.49
2018-05-23T06:59:55.309Z,17.52
2018-05-23T07:00:55.331Z,17.56
2018-05-23T07:01:55.347Z,17.70
2018-05-23T07:02:55.372Z,17.64
2018-05-23T07:03:55.382Z,17.59
2018-05-23T07:04:55.398Z,17.68
2018-05-23T07:05:55.434Z,17.64
2018-05-23T07:06:55.436Z,17.70
2018-05-23T07:07:55.454Z,17.64
2018-05-23T07:08:55.472Z,17.71
2018-05-23T07:09:55.489Z,17.70
2018-05-23T07:10:55.534Z,17.71
2018-05-23T07:11:55.524Z,17.72
2018-05-23T07:12:55.542Z,17.79
2018-05-23T07:13:55.564Z,17.96
2018-05-23T07:14:55.578Z,18.14
2018-05-23T07:15:55.601Z,18.39
2018-05-23T07:16:55.641Z,18.72
2018-05-23T07:17:55.763Z,18.88
2018-05-23T07:18:55.651Z,18.99
2018-05-23T07:19:55.670Z,18.95
2018-05-23T07:20:55.687Z,19.07
2018-05-23T07:21:55.715Z,19.11
2018-05-23T07:22:55.724Z,19.13
2018-05-23T07:23:55.767Z,19.00
2018-05-23T07:24:55.762Z,18.92
2018-05-23T07:25:55.827Z,18.82
2018-05-23T07:26:55.799Z,18.85
2018-05-23T07:27:55.815Z,18.63
2018-05-23T07:28:55.836Z,18.63
2018-05-23T07:29:55.860Z,18.51
2018-05-23T07:30:55.877Z,18.72
2018-05-23T07:31:55.893Z,18.52
2018-05-23T07:32:55.908Z,18.39
2018-05-23T07:33:55.926Z,18.21
2018-05-23T07:34:55.947Z,18.18
2018-05-23T07:35:55.966Z,18.05
2018-05-23T07:36:55.981Z,18.14
2018-05-23T07:37:56.001Z,18.23
2018-05-23T07:38:56.019Z,18.26
2018-05-23T07:39:56.036Z,18.36
2018-05-23T07:40:56.056Z,18.44
2018-05-23T07:41:56.077Z,18.52
2018-05-23T07:42:56.092Z,18.73
2018-05-23T07:43:56.111Z,18.58
2018-05-23T07:44:56.144Z,18.55
2018-05-23T07:45:56.213Z,18.55
2018-05-23T07:46:56.173Z,18.70
2018-05-23T07:47:56.184Z,18.66
2018-05-23T07:48:56.204Z,18.58
2018-05-23T07:49:56.221Z,18.66
2018-05-23T07:50:56.240Z,18.54
2018-05-23T07:51:56.261Z,18.57
2018-05-23T07:52:56.281Z,18.66
2018-05-23T07:53:56.313Z,18.80
2018-05-23T07:54:56.322Z,18.91
2018-05-23T07:55:56.334Z,19.02
2018-05-23T07:56:56.351Z,19.02
2018-05-23T07:57:56.372Z,19.10
2018-05-23T07:58:56.390Z,19.40
2018-05-23T07:59:56.411Z,19.47
2018-05-23T08:00:56.428Z,19.65
2018-05-23T08:01:56.445Z,19.71
2018-05-23T08:02:56.467Z,19.86
2018-05-23T08:03:56.482Z,19.98
2018-05-23T08:04:56.503Z,20.05
2018-05-23T08:05:56.522Z,20.47
2018-05-23T08:06:56.540Z,20.66
2018-05-23T08:07:56.566Z,20.73
2018-05-23T08:08:56.577Z,21.14
2018-05-23T08:09:56.597Z,21.10
2018-05-23T08:10:56.621Z,21.07
2018-05-23T08:11:56.637Z,20.97
2018-05-23T08:12:56.656Z,20.87
2018-05-23T08:13:56.674Z,20.97
2018-05-23T08:14:56.693Z,20.98
2018-05-23T08:15:56.796Z,20.84
2018-05-23T08:16:56.735Z,20.38
2018-05-23T08:17:56.753Z,20.21
2018-05-23T08:18:56.823Z,20.02
2018-05-23T08:19:56.790Z,20.16
2018-05-23T08:20:56.810Z,20.29
2018-05-23T08:21:56.829Z,20.58
2018-05-23T08:22:56.848Z,20.76
2018-05-23T08:23:56.867Z,21.03
2018-05-23T08:24:56.941Z,20.92
2018-05-23T08:25:56.911Z,21.37
2018-05-23T08:26:56.928Z,21.83
2018-05-23T08:27:56.946Z,22.40
2018-05-23T08:28:56.966Z,23.12
2018-05-23T08:29:56.989Z,23.58
2018-05-23T08:30:57.059Z,23.83
2018-05-23T08:31:57.030Z,23.04
2018-05-23T08:32:57.053Z,22.64
2018-05-23T08:33:57.070Z,23.22
2018-05-23T08:34:57.087Z,23.66
2018-05-23T08:35:57.109Z,23.87
2018-05-23T08:36:57.179Z,22.73
2018-05-23T08:37:57.150Z,22.57
2018-05-23T08:38:57.170Z,22.54
2018-05-23T08:39:57.190Z,22.51
2018-05-23T08:40:57.212Z,22.62
2018-05-23T08:41:57.234Z,22.45
2018-05-23T08:42:57.257Z,22.47
2018-05-23T08:43:57.274Z,22.73
2018-05-23T08:44:57.301Z,23.12
2018-05-23T08:45:57.421Z,22.54
2018-05-23T08:46:57.339Z,22.09
2018-05-23T08:47:57.426Z,22.60
2018-05-23T08:48:57.380Z,23.28
2018-05-23T08:49:57.401Z,22.61
2018-05-23T08:50:57.423Z,22.64
2018-05-23T08:51:57.448Z,22.49
2018-05-23T08:52:57.463Z,22.60
2018-05-23T08:53:57.493Z,22.91
2018-05-23T08:54:57.509Z,23.19
2018-05-23T08:55:57.530Z,23.60
2018-05-23T08:56:57.549Z,23.47
2018-05-23T08:57:57.572Z,23.57
2018-05-23T08:58:57.592Z,24.10
2018-05-23T08:59:57.692Z,24.53
2018-05-23T09:00:57.685Z,24.50
2018-05-23T09:01:57.656Z,24.24
2018-05-23T09:02:57.681Z,24.31
2018-05-23T09:03:57.700Z,23.78
2018-05-23T09:04:57.767Z,23.38
2018-05-23T09:05:57.742Z,23.53
2018-05-23T09:06:57.764Z,23.63
2018-05-23T09:07:57.785Z,23.84
2018-05-23T09:08:57.821Z,23.57
2018-05-23T09:09:57.909Z,23.75
2018-05-23T09:10:57.851Z,23.60
2018-05-23T09:11:57.874Z,23.61
2018-05-23T09:12:57.896Z,23.15
2018-05-23T09:13:57.916Z,23.17
2018-05-23T09:14:57.938Z,23.50
2018-05-23T09:15:57.961Z,23.97
2018-05-23T09:16:57.980Z,24.06
2018-05-23T09:17:58.003Z,24.30
2018-05-23T09:18:58.076Z,24.39
2018-05-23T09:19:58.049Z,23.42
2018-05-23T09:20:58.069Z,23.42
2018-05-23T09:21:58.090Z,24.09
2018-05-23T09:22:58.123Z,24.69
2018-05-23T09:23:58.142Z,25.18
2018-05-23T09:24:58.217Z,24.65
2018-05-23T09:25:58.178Z,24.05
2018-05-23T09:26:58.204Z,23.79
2018-05-23T09:27:58.222Z,23.78
2018-05-23T09:28:58.267Z,23.88
2018-05-23T09:29:58.267Z,23.55
2018-05-23T09:30:58.290Z,23.36
2018-05-23T09:31:58.312Z,23.23
2018-05-23T09:32:58.333Z,23.54
2018-05-23T09:33:58.402Z,23.83
2018-05-23T09:34:58.376Z,23.54
2018-05-23T09:35:58.399Z,23.70
2018-05-23T09:36:58.422Z,23.50
2018-05-23T09:37:58.444Z,23.42
2018-05-23T09:38:58.464Z,23.17
2018-05-23T09:39:58.492Z,23.25
2018-05-23T09:40:58.537Z,23.51
2018-05-23T09:41:58.532Z,23.40
2018-05-23T09:42:58.562Z,23.42
2018-05-23T09:43:58.577Z,23.47
2018-05-23T09:44:58.596Z,23.60
2018-05-23T09:45:58.620Z,23.47
2018-05-23T09:46:58.673Z,24.16
2018-05-23T09:47:58.661Z,24.13
2018-05-23T09:48:58.735Z,23.83
2018-05-23T09:49:58.705Z,23.88
2018-05-23T09:50:58.728Z,24.27
2018-05-23T09:51:58.759Z,24.50
2018-05-23T09:52:58.779Z,25.03
2018-05-23T09:53:58.793Z,25.17
2018-05-23T09:54:58.899Z,25.09
2018-05-23T09:55:58.837Z,24.99
2018-05-23T09:56:58.863Z,25.10
2018-05-23T09:57:58.883Z,25.05
2018-05-23T09:58:58.908Z,25.03
2018-05-23T09:59:58.927Z,25.33
2018-05-23T10:00:59.027Z,25.73
2018-05-23T10:01:58.976Z,26.05
2018-05-23T10:02:58.997Z,25.51
2018-05-23T10:03:59.020Z,24.53
2018-05-23T10:04:59.039Z,24.87
2018-05-23T10:05:59.064Z,25.09
2018-05-23T10:06:59.287Z,24.69
2018-05-23T10:07:59.106Z,24.84
2018-05-23T10:08:59.164Z,24.95
2018-05-23T10:09:59.153Z,25.08
2018-05-23T10:10:59.175Z,25.33
2018-05-23T10:11:59.198Z,26.09
2018-05-23T10:13:59.248Z,26.88
2018-05-23T10:14:59.267Z,26.35
2018-05-23T10:15:59.294Z,26.10
2018-05-23T10:16:59.311Z,25.38
2018-05-23T10:17:59.335Z,25.23
2018-05-23T10:19:59.381Z,25.27
2018-05-23T10:20:59.405Z,26.12
2018-05-23T10:21:59.427Z,26.54
2018-05-23T10:22:59.460Z,26.50
2018-05-23T10:23:59.476Z,26.21
2018-05-23T10:24:59.546Z,26.51
2018-05-23T10:25:59.521Z,26.58
2018-05-23T10:26:59.542Z,26.07
2018-05-23T10:27:59.568Z,25.67
2018-05-23T10:28:59.595Z,25.18
2018-05-23T10:29:59.612Z,25.30
2018-05-23T10:30:59.636Z,25.69
2018-05-23T10:31:59.660Z,26.37
2018-05-23T10:32:59.680Z,26.72
2018-05-23T10:33:59.723Z,26.48
2018-05-23T10:34:59.729Z,25.36
2018-05-23T10:35:59.751Z,25.85
2018-05-23T10:36:59.825Z,26.48
2018-05-23T10:37:59.798Z,26.76
2018-05-23T10:38:59.828Z,27.74
2018-05-23T10:39:59.900Z,28.33
2018-05-23T10:40:59.866Z,28.03
2018-05-23T10:41:59.891Z,28.27
2018-05-23T10:42:59.964Z,28.36
2018-05-23T10:43:59.938Z,28.37
2018-05-23T10:44:59.965Z,27.55
2018-05-23T10:46:00.059Z,27.47
2018-05-23T10:47:00.011Z,26.77
2018-05-23T10:48:00.035Z,26.20
2018-05-23T10:49:00.110Z,25.79
2018-05-23T10:50:00.085Z,24.71
2018-05-23T10:51:00.105Z,24.64
2018-05-23T10:52:00.219Z,23.85
2018-05-23T10:53:00.152Z,23.87
2018-05-23T10:54:00.176Z,23.84
2018-05-23T10:55:00.204Z,24.40
2018-05-23T10:56:00.225Z,25.14
2018-05-23T10:57:00.257Z,25.58
2018-05-23T10:58:00.308Z,25.62
2018-05-23T10:59:00.294Z,25.51
2018-05-23T11:00:00.319Z,26.13
2018-05-23T11:01:00.389Z,26.76
2018-05-23T11:02:00.394Z,25.52
2018-05-23T11:03:00.470Z,25.50
2018-05-23T11:04:00.429Z,25.47
2018-05-23T11:05:00.435Z,25.52
2018-05-23T11:06:00.487Z,25.39
2018-05-23T11:07:00.528Z,25.23
2018-05-23T11:08:00.501Z,24.76
2018-05-23T11:09:00.637Z,25.32
2018-05-23T11:10:00.565Z,25.57
2018-05-23T11:11:00.572Z,25.70
2018-05-23T11:12:00.744Z,25.72
2018-05-23T11:13:00.669Z,25.60
2018-05-23T11:14:00.646Z,26.02
2018-05-23T11:15:00.667Z,26.75
2018-05-23T11:16:00.693Z,27.13
2018-05-23T11:17:00.710Z,27.60
2018-05-23T11:18:00.735Z,26.91
2018-05-23T11:19:00.809Z,26.95
2018-05-23T11:20:00.782Z,27.02
2018-05-23T11:21:00.805Z,27.51
2018-05-23T11:22:00.896Z,27.40
2018-05-23T11:23:00.852Z,27.44
2018-05-23T11:24:00.874Z,27.85
2018-05-23T11:25:00.900Z,26.44
2018-05-23T11:26:00.927Z,26.95
2018-05-23T11:27:00.947Z,27.27
2018-05-23T11:28:01.025Z,27.47
2018-05-23T11:29:00.996Z,27.22
2018-05-23T11:30:01.020Z,26.95
2018-05-23T11:31:01.094Z,25.57
2018-05-23T11:32:01.071Z,24.69
2018-05-23T11:33:01.093Z,24.35
2018-05-23T11:34:01.126Z,24.61
2018-05-23T11:35:01.138Z,25.21
2018-05-23T11:37:01.237Z,25.45
2018-05-23T11:38:01.282Z,24.99
2018-05-23T11:39:01.233Z,25.15
2018-05-23T11:40:01.272Z,25.54
2018-05-23T11:41:01.283Z,25.58
2018-05-23T11:42:01.305Z,25.36
2018-05-23T11:43:01.328Z,25.67
2018-05-23T11:44:01.351Z,25.85
2018-05-23T11:45:01.387Z,26.44
2018-05-23T11:46:01.470Z,26.72
2018-05-23T11:47:01.421Z,27.12
2018-05-23T11:48:01.447Z,26.45
2018-05-23T11:49:01.519Z,26.67
2018-05-23T11:50:01.502Z,26.62
2018-05-23T11:51:01.516Z,26.10
2018-05-23T11:52:01.536Z,25.38
2018-05-23T11:53:01.561Z,25.10
2018-05-23T11:54:01.586Z,24.95
2018-05-23T11:55:01.660Z,25.23
2018-05-23T11:56:01.640Z,25.87
2018-05-23T11:57:01.655Z,25.24
2018-05-23T11:58:01.679Z,25.38
2018-05-23T11:59:01.703Z,25.70
2018-05-23T12:00:01.727Z,26.25
2018-05-23T12:01:01.805Z,26.43
2018-05-23T12:02:01.773Z,25.92
2018-05-23T12:03:01.799Z,25.24
2018-05-23T12:04:01.819Z,24.91
2018-05-23T12:05:01.845Z,25.10
2018-05-23T12:06:01.867Z,25.28
2018-05-23T12:07:01.941Z,25.83
2018-05-23T12:08:01.914Z,26.13
2018-05-23T12:09:02.002Z,25.77
2018-05-23T12:10:01.962Z,25.70
2018-05-23T12:11:01.984Z,25.80
2018-05-23T12:12:02.006Z,26.39
2018-05-23T12:13:02.080Z,26.62
2018-05-23T12:14:02.056Z,27.34
2018-05-23T12:15:02.123Z,27.32
2018-05-23T12:16:02.109Z,26.63
2018-05-23T12:17:02.155Z,26.80
2018-05-23T12:18:02.151Z,26.50
2018-05-23T12:19:02.224Z,24.83
2018-05-23T12:20:02.198Z,23.97
2018-05-23T12:21:02.272Z,24.57
2018-05-23T12:22:02.245Z,24.47
2018-05-23T12:23:02.268Z,23.80
2018-05-23T12:24:02.295Z,24.10
2018-05-23T12:25:02.366Z,24.27
2018-05-23T12:26:02.337Z,24.61
2018-05-23T12:27:02.397Z,24.84
2018-05-23T12:28:02.382Z,25.13
2018-05-23T12:29:02.407Z,25.55
2018-05-23T12:30:02.430Z,25.80
2018-05-23T12:31:02.457Z,25.55
2018-05-23T12:32:02.474Z,25.33
2018-05-23T12:33:02.499Z,25.72
2018-05-23T12:34:02.523Z,25.80
2018-05-23T12:35:02.547Z,24.81
2018-05-23T12:36:02.569Z,24.13
2018-05-23T12:37:02.593Z,25.09
2018-05-23T12:38:02.660Z,25.40
2018-05-23T12:39:02.638Z,26.09
2018-05-23T12:40:02.662Z,25.95
2018-05-23T12:41:02.709Z,25.64
2018-05-23T12:42:02.721Z,25.36
2018-05-23T12:43:02.783Z,24.98
2018-05-23T12:44:02.779Z,25.03
2018-05-23T12:45:02.777Z,24.64
2018-05-23T12:46:02.799Z,25.09
2018-05-23T12:47:02.823Z,24.55
2018-05-23T12:48:02.845Z,24.15
2018-05-23T12:49:02.921Z,24.37
2018-05-23T12:50:02.903Z,24.31
2018-05-23T12:51:02.917Z,24.06
2018-05-23T12:52:02.938Z,24.31
2018-05-23T12:53:02.960Z,24.47
2018-05-23T12:54:02.983Z,24.64
2018-05-23T12:55:03.059Z,23.61
2018-05-23T12:56:03.110Z,24.24